sensor_id;sensor_type;location;lat;lon;timestamp;pressure;altitude;pressure_sealevel;temperature;humidity
52651;BME280;38537;47.226;39.702;2023-05-08T00:00:17;100764.03;;;10.06;82.35
52651;BME280;38537;47.226;39.702;2023-05-08T00:02:45;100781.78;;;10.20;82.33
52651;BME280;38537;47.226;39.702;2023-05-08T00:05:12;100781.78;;;10.20;82.29
52651;BME280;38537;47.226;39.702;2023-05-08T00:07:40;100769.28;;;10.12;82.27
52651;BME280;38537;47.226;39.702;2023-05-08T00:10:07;100792.09;;;10.19;82.14
52651;BME280;38537;47.226;39.702;2023-05-08T00:12:36;100794.88;;;10.19;81.91
52651;BME280;38537;47.226;39.702;2023-05-08T00:15:04;100792.88;;;10.25;82.22
52651;BME280;38537;47.226;39.702;2023-05-08T00:17:32;100777.56;;;10.22;82.08
52651;BME280;38537;47.226;39.702;2023-05-08T00:19:59;100784.22;;;10.26;81.81
52651;BME280;38537;47.226;39.702;2023-05-08T00:22:30;100776.97;;;10.25;81.73
52651;BME280;38537;47.226;39.702;2023-05-08T00:24:57;100776.19;;;10.20;82.07
52651;BME280;38537;47.226;39.702;2023-05-08T00:27:25;100775.41;;;10.14;82.24
52651;BME280;38537;47.226;39.702;2023-05-08T00:29:52;100769.81;;;10.14;82.34
52651;BME280;38537;47.226;39.702;2023-05-08T00:32:19;100776.00;;;10.11;82.56
52651;BME280;38537;47.226;39.702;2023-05-08T00:34:47;100776.00;;;10.11;82.67
52651;BME280;38537;47.226;39.702;2023-05-08T00:37:15;100777.06;;;10.15;82.68
52651;BME280;38537;47.226;39.702;2023-05-08T00:39:42;100773.97;;;10.17;82.64
52651;BME280;38537;47.226;39.702;2023-05-08T00:42:09;100761.41;;;10.19;82.65
52651;BME280;38537;47.226;39.702;2023-05-08T00:44:37;100771.50;;;10.15;82.76
52651;BME280;38537;47.226;39.702;2023-05-08T00:47:06;100762.09;;;10.06;82.79
52651;BME280;38537;47.226;39.702;2023-05-08T00:49:34;100768.75;;;10.10;82.78
52651;BME280;38537;47.226;39.702;2023-05-08T00:52:03;100771.78;;;10.14;82.75
52651;BME280;38537;47.226;39.702;2023-05-08T00:54:37;100763.47;;;10.09;82.67
52651;BME280;38537;47.226;39.702;2023-05-08T00:57:06;100757.69;;;10.00;82.88
52651;BME280;38537;47.226;39.702;2023-05-08T00:59:35;100788.28;;;10.10;82.82
52651;BME280;38537;47.226;39.702;2023-05-08T01:02:03;100757.69;;;10.00;82.78
52651;BME280;38537;47.226;39.702;2023-05-08T01:04:32;100770.50;;;10.01;82.88
52651;BME280;38537;47.226;39.702;2023-05-08T01:07:03;100783.28;;;10.07;83.47
52651;BME280;38537;47.226;39.702;2023-05-08T01:09:30;100768.91;;;9.95;83.13
52651;BME280;38537;47.226;39.702;2023-05-08T01:12:19;100761.31;;;10.01;83.88
52651;BME280;38537;47.226;39.702;2023-05-08T01:20:41;100763.25;;;10.00;83.68
52651;BME280;38537;47.226;39.702;2023-05-08T01:28:51;100781.78;;;9.91;84.10
52651;BME280;38537;47.226;39.702;2023-05-08T01:31:23;100777.91;;;9.87;84.04
52651;BME280;38537;47.226;39.702;2023-05-08T01:34:19;100776.28;;;9.81;84.42
52651;BME280;38537;47.226;39.702;2023-05-08T01:36:57;100774.38;;;9.76;84.31
52651;BME280;38537;47.226;39.702;2023-05-08T01:42:31;100780.16;;;9.85;84.75
52651;BME280;38537;47.226;39.702;2023-05-08T01:45:03;100783.56;;;9.77;84.09
52651;BME280;38537;47.226;39.702;2023-05-08T01:47:36;100785.31;;;9.73;84.62
52651;BME280;38537;47.226;39.702;2023-05-08T01:50:12;100790.34;;;9.71;84.80
52651;BME280;38537;47.226;39.702;2023-05-08T01:52:47;100802.88;;;9.73;84.86
52651;BME280;38537;47.226;39.702;2023-05-08T01:55:26;100786.16;;;9.68;85.43
52651;BME280;38537;47.226;39.702;2023-05-08T01:57:56;100766.47;;;9.54;85.27
52651;BME280;38537;47.226;39.702;2023-05-08T02:00:25;100792.63;;;9.63;85.24
52651;BME280;38537;47.226;39.702;2023-05-08T02:02:58;100803.22;;;9.61;85.46
52651;BME280;38537;47.226;39.702;2023-05-08T02:05:26;100794.84;;;9.61;85.16
52651;BME280;38537;47.226;39.702;2023-05-08T02:07:55;100805.44;;;9.65;85.61
52651;BME280;38537;47.226;39.702;2023-05-08T02:10:24;100801.56;;;9.60;85.66
52651;BME280;38537;47.226;39.702;2023-05-08T02:12:53;100791.56;;;9.54;85.67
52651;BME280;38537;47.226;39.702;2023-05-08T02:15:23;100806.09;;;9.51;85.81
52651;BME280;38537;47.226;39.702;2023-05-08T02:17:53;100810.00;;;9.50;86.02
52651;BME280;38537;47.226;39.702;2023-05-08T02:20:21;100799.09;;;9.54;86.16
52651;BME280;38537;47.226;39.702;2023-05-08T02:22:50;100823.91;;;9.55;85.75
52651;BME280;38537;47.226;39.702;2023-05-08T02:25:18;100799.09;;;9.54;85.61
52651;BME280;38537;47.226;39.702;2023-05-08T02:27:47;100791.91;;;9.48;85.87
52651;BME280;38537;47.226;39.702;2023-05-08T02:30:17;100800.22;;;9.53;85.94
52651;BME280;38537;47.226;39.702;2023-05-08T02:32:46;100797.25;;;9.39;86.33
52651;BME280;38537;47.226;39.702;2023-05-08T02:35:17;100806.72;;;9.43;86.41
52651;BME280;38537;47.226;39.702;2023-05-08T02:37:52;100824.56;;;9.42;86.81
52651;BME280;38537;47.226;39.702;2023-05-08T02:40:25;100808.66;;;9.43;86.73
52651;BME280;38537;47.226;39.702;2023-05-08T02:42:54;100812.84;;;9.45;86.61
52651;BME280;38537;47.226;39.702;2023-05-08T02:45:24;100812.56;;;9.42;86.86
52651;BME280;38537;47.226;39.702;2023-05-08T02:48:32;100806.72;;;9.43;87.14
52651;BME280;38537;47.226;39.702;2023-05-08T02:51:17;100813.97;;;9.39;87.11
52651;BME280;38537;47.226;39.702;2023-05-08T02:53:58;100812.31;;;9.38;87.09
52651;BME280;38537;47.226;39.702;2023-05-08T02:56:45;100819.56;;;9.39;87.20
52651;BME280;38537;47.226;39.702;2023-05-08T02:59:22;100856.94;;;9.33;86.86
52651;BME280;38537;47.226;39.702;2023-05-08T03:02:21;100823.50;;;9.33;87.47
52651;BME280;38537;47.226;39.702;2023-05-08T03:05:07;100810.47;;;9.23;87.09
52651;BME280;38537;47.226;39.702;2023-05-08T03:08:04;100822.94;;;9.31;87.39
52651;BME280;38537;47.226;39.702;2023-05-08T03:10:41;100824.38;;;9.28;87.28
52651;BME280;38537;47.226;39.702;2023-05-08T03:13:11;100822.47;;;9.24;87.40
52651;BME280;38537;47.226;39.702;2023-05-08T03:15:56;100830.50;;;9.31;87.58
52651;BME280;38537;47.226;39.702;2023-05-08T03:18:29;100800.47;;;9.17;87.40
52651;BME280;38537;47.226;39.702;2023-05-08T03:20:58;100826.06;;;9.24;87.27
52651;BME280;38537;47.226;39.702;2023-05-08T03:23:28;100847.78;;;9.27;87.35
52651;BME280;38537;47.226;39.702;2023-05-08T03:25:57;100836.66;;;9.22;87.14
52651;BME280;38537;47.226;39.702;2023-05-08T03:28:26;100837.50;;;9.23;87.46
52651;BME280;38537;47.226;39.702;2023-05-08T03:30:57;100819.69;;;9.19;87.23
52651;BME280;38537;47.226;39.702;2023-05-08T03:33:27;100854.22;;;9.23;87.23
52651;BME280;38537;47.226;39.702;2023-05-08T03:35:56;100824.41;;;9.23;87.04
52651;BME280;38537;47.226;39.702;2023-05-08T03:38:24;100835.00;;;9.21;86.98
52651;BME280;38537;47.226;39.702;2023-05-08T03:40:51;100848.66;;;9.23;87.07
52651;BME280;38537;47.226;39.702;2023-05-08T03:43:20;100873.19;;;9.21;86.71
52651;BME280;38537;47.226;39.702;2023-05-08T03:45:49;100856.72;;;9.24;87.05
52651;BME280;38537;47.226;39.702;2023-05-08T03:48:17;100848.66;;;9.23;86.78
52651;BME280;38537;47.226;39.702;2023-05-08T03:50:48;100864.81;;;9.21;86.95
52651;BME280;38537;47.226;39.702;2023-05-08T03:53:16;100844.19;;;9.22;86.98
52651;BME280;38537;47.226;39.702;2023-05-08T03:55:46;100857.28;;;9.21;87.05
52651;BME280;38537;47.226;39.702;2023-05-08T03:58:20;100845.63;;;9.14;86.71
52651;BME280;38537;47.226;39.702;2023-05-08T04:12:19;100856.22;;;9.12;87.80
52651;BME280;38537;47.226;39.702;2023-05-08T04:14:52;100866.53;;;9.12;87.49
52651;BME280;38537;47.226;39.702;2023-05-08T04:17:35;100870.47;;;9.06;87.48
52651;BME280;38537;47.226;39.702;2023-05-08T04:20:08;100876.88;;;9.06;87.63
52651;BME280;38537;47.226;39.702;2023-05-08T04:22:39;100879.72;;;8.96;87.87
52651;BME280;38537;47.226;39.702;2023-05-08T04:25:09;100870.78;;;8.99;87.96
52651;BME280;38537;47.226;39.702;2023-05-08T04:27:39;100877.47;;;9.03;87.90
52651;BME280;38537;47.226;39.702;2023-05-08T04:30:07;100849.06;;;9.01;88.04
52651;BME280;38537;47.226;39.702;2023-05-08T04:32:37;100847.06;;;9.07;87.96
52651;BME280;38537;47.226;39.702;2023-05-08T04:35:08;100849.88;;;9.07;87.98
52651;BME280;38537;47.226;39.702;2023-05-08T04:37:35;100837.91;;;9.01;87.32
52651;BME280;38537;47.226;39.702;2023-05-08T04:40:02;100827.06;;;9.00;87.62
52651;BME280;38537;47.226;39.702;2023-05-08T04:42:32;100876.00;;;9.16;87.40
52651;BME280;38537;47.226;39.702;2023-05-08T04:45:02;100869.88;;;9.14;87.18
52651;BME280;38537;47.226;39.702;2023-05-08T04:47:32;100879.66;;;9.06;87.03
52651;BME280;38537;47.226;39.702;2023-05-08T04:50:00;100876.34;;;9.04;87.24
52651;BME280;38537;47.226;39.702;2023-05-08T04:52:31;100864.63;;;9.07;87.61
52651;BME280;38537;47.226;39.702;2023-05-08T04:54:58;100863.25;;;9.05;87.33
52651;BME280;38537;47.226;39.702;2023-05-08T04:57:26;100868.25;;;9.08;87.36
52651;BME280;38537;47.226;39.702;2023-05-08T04:59:53;100874.06;;;9.11;87.15
52651;BME280;38537;47.226;39.702;2023-05-08T05:02:20;100863.19;;;9.10;87.42
52651;BME280;38537;47.226;39.702;2023-05-08T05:04:48;100869.03;;;9.13;87.06
52651;BME280;38537;47.226;39.702;2023-05-08T05:07:15;100852.06;;;9.10;86.81
52651;BME280;38537;47.226;39.702;2023-05-08T05:09:42;100861.56;;;9.04;86.96
52651;BME280;38537;47.226;39.702;2023-05-08T05:12:10;100857.13;;;8.98;86.91
52651;BME280;38537;47.226;39.702;2023-05-08T05:14:38;100877.16;;;9.05;86.92
52651;BME280;38537;47.226;39.702;2023-05-08T05:17:05;100868.81;;;9.05;86.80
52651;BME280;38537;47.226;39.702;2023-05-08T05:19:32;100886.09;;;9.02;87.31
52651;BME280;38537;47.226;39.702;2023-05-08T05:22:00;100856.84;;;9.04;87.12
52651;BME280;38537;47.226;39.702;2023-05-08T05:24:29;100845.41;;;9.06;87.40
52651;BME280;38537;47.226;39.702;2023-05-08T05:26:56;100854.03;;;9.09;87.33
52651;BME280;38537;47.226;39.702;2023-05-08T05:29:24;100868.25;;;9.08;86.87
52651;BME280;38537;47.226;39.702;2023-05-08T05:31:52;100842.38;;;9.02;86.52
52651;BME280;38537;47.226;39.702;2023-05-08T05:34:19;100876.59;;;9.08;86.81
52651;BME280;38537;47.226;39.702;2023-05-08T05:36:47;100847.66;;;8.99;86.58
52651;BME280;38537;47.226;39.702;2023-05-08T05:39:14;100854.91;;;9.00;87.16
52651;BME280;38537;47.226;39.702;2023-05-08T05:41:42;100859.34;;;9.06;86.94
52651;BME280;38537;47.226;39.702;2023-05-08T05:44:11;100836.78;;;9.02;86.86
52651;BME280;38537;47.226;39.702;2023-05-08T05:46:38;100874.38;;;9.05;86.98
52651;BME280;38537;47.226;39.702;2023-05-08T05:49:10;100891.09;;;9.05;87.10
52651;BME280;38537;47.226;39.702;2023-05-08T05:51:38;100869.59;;;9.10;87.18
52651;BME280;38537;47.226;39.702;2023-05-08T05:54:06;100837.41;;;8.89;87.24
52651;BME280;38537;47.226;39.702;2023-05-08T05:56:33;100885.53;;;9.05;86.71
52651;BME280;38537;47.226;39.702;2023-05-08T05:59:01;100868.75;;;9.10;86.88
52651;BME280;38537;47.226;39.702;2023-05-08T06:01:28;100855.72;;;9.05;86.55
52651;BME280;38537;47.226;39.702;2023-05-08T06:03:56;100861.00;;;9.07;86.68
52651;BME280;38537;47.226;39.702;2023-05-08T06:06:23;100878.88;;;8.96;86.08
52651;BME280;38537;47.226;39.702;2023-05-08T06:08:52;100858.53;;;8.95;86.77
52651;BME280;38537;47.226;39.702;2023-05-08T06:11:22;100870.50;;;8.96;86.51
52651;BME280;38537;47.226;39.702;2023-05-08T06:13:50;100891.38;;;9.03;86.42
52651;BME280;38537;47.226;39.702;2023-05-08T06:16:17;100904.22;;;8.99;86.24
52651;BME280;38537;47.226;39.702;2023-05-08T06:18:46;100894.47;;;8.97;86.23
52651;BME280;38537;47.226;39.702;2023-05-08T06:21:14;100884.44;;;9.01;86.12
52651;BME280;38537;47.226;39.702;2023-05-08T06:23:42;100896.41;;;9.01;86.29
52651;BME280;38537;47.226;39.702;2023-05-08T06:26:09;100910.03;;;9.03;86.22
52651;BME280;38537;47.226;39.702;2023-05-08T06:28:37;100887.19;;;9.06;86.43
52651;BME280;38537;47.226;39.702;2023-05-08T06:31:04;100881.06;;;9.09;86.05
52651;BME280;38537;47.226;39.702;2023-05-08T06:33:31;100895.50;;;9.16;86.03
52651;BME280;38537;47.226;39.702;2023-05-08T06:35:59;100898.88;;;9.08;85.72
52651;BME280;38537;47.226;39.702;2023-05-08T06:38:26;100889.44;;;8.99;85.80
52651;BME280;38537;47.226;39.702;2023-05-08T06:40:53;100898.59;;;9.09;85.61
52651;BME280;38537;47.226;39.702;2023-05-08T06:43:22;100888.81;;;9.12;85.61
52651;BME280;38537;47.226;39.702;2023-05-08T06:45:50;100906.34;;;9.17;85.51
52651;BME280;38537;47.226;39.702;2023-05-08T06:48:19;100898.81;;;9.18;85.30
52651;BME280;38537;47.226;39.702;2023-05-08T06:50:46;100900.03;;;9.02;85.56
52651;BME280;38537;47.226;39.702;2023-05-08T06:53:14;100903.53;;;9.22;85.36
52651;BME280;38537;47.226;39.702;2023-05-08T06:55:42;100901.03;;;9.21;84.84
52651;BME280;38537;47.226;39.702;2023-05-08T06:58:09;100892.16;;;9.14;85.01
52651;BME280;38537;47.226;39.702;2023-05-08T07:00:37;100890.44;;;9.28;85.55
52651;BME280;38537;47.226;39.702;2023-05-08T07:03:04;100914.44;;;9.19;85.09
52651;BME280;38537;47.226;39.702;2023-05-08T07:05:31;100899.94;;;9.17;84.98
52651;BME280;38537;47.226;39.702;2023-05-08T07:07:58;100921.09;;;9.23;84.94
52651;BME280;38537;47.226;39.702;2023-05-08T07:10:25;100917.47;;;9.22;84.55
52651;BME280;38537;47.226;39.702;2023-05-08T07:12:53;100943.94;;;9.30;84.89
52651;BME280;38537;47.226;39.702;2023-05-08T07:15:20;100931.63;;;9.31;84.69
52651;BME280;38537;47.226;39.702;2023-05-08T07:17:52;100919.63;;;9.36;84.72
52651;BME280;38537;47.226;39.702;2023-05-08T07:20:20;100924.38;;;9.35;84.39
52651;BME280;38537;47.226;39.702;2023-05-08T07:22:48;100915.22;;;9.30;84.48
52651;BME280;38537;47.226;39.702;2023-05-08T07:25:16;100942.75;;;9.36;84.28
52651;BME280;38537;47.226;39.702;2023-05-08T07:27:43;100915.44;;;9.38;84.40
52651;BME280;38537;47.226;39.702;2023-05-08T07:30:10;100917.47;;;9.27;84.30
52651;BME280;38537;47.226;39.702;2023-05-08T07:32:37;100930.75;;;9.41;84.30
52651;BME280;38537;47.226;39.702;2023-05-08T07:35:06;100908.47;;;9.36;84.35
52651;BME280;38537;47.226;39.702;2023-05-08T07:37:38;100954.19;;;9.35;83.53
52651;BME280;38537;47.226;39.702;2023-05-08T07:40:05;100924.34;;;9.40;84.05
52651;BME280;38537;47.226;39.702;2023-05-08T07:42:43;100931.84;;;9.50;83.88
52651;BME280;38537;47.226;39.702;2023-05-08T07:45:12;100946.56;;;9.55;83.72
52651;BME280;38537;47.226;39.702;2023-05-08T07:47:51;100954.41;;;9.48;82.86
52651;BME280;38537;47.226;39.702;2023-05-08T07:50:20;100938.00;;;9.42;83.63
52651;BME280;38537;47.226;39.702;2023-05-08T07:52:47;100951.63;;;9.48;83.76
52651;BME280;38537;47.226;39.702;2023-05-08T07:55:17;100948.88;;;9.38;83.25
52651;BME280;38537;47.226;39.702;2023-05-08T07:57:46;100961.69;;;9.44;82.95
52651;BME280;38537;47.226;39.702;2023-05-08T08:00:14;100937.72;;;9.38;83.22
52651;BME280;38537;47.226;39.702;2023-05-08T08:02:43;100943.03;;;9.40;83.34
52651;BME280;38537;47.226;39.702;2023-05-08T08:05:11;100950.81;;;9.43;83.62
52651;BME280;38537;47.226;39.702;2023-05-08T08:07:39;100997.09;;;9.39;83.57
52651;BME280;38537;47.226;39.702;2023-05-08T08:10:06;100957.81;;;9.35;83.78
52651;BME280;38537;47.226;39.702;2023-05-08T08:12:36;100969.25;;;9.34;83.80
52651;BME280;38537;47.226;39.702;2023-05-08T08:15:04;100944.75;;;9.31;83.99
52651;BME280;38537;47.226;39.702;2023-05-08T08:17:32;100955.56;;;9.37;84.42
52651;BME280;38537;47.226;39.702;2023-05-08T08:19:59;100939.19;;;9.31;84.44
52651;BME280;38537;47.226;39.702;2023-05-08T08:22:28;100966.47;;;9.34;84.30
52651;BME280;38537;47.226;39.702;2023-05-08T08:24:55;100956.16;;;9.34;84.28
52651;BME280;38537;47.226;39.702;2023-05-08T08:27:22;100959.47;;;9.41;83.67
52651;BME280;38537;47.226;39.702;2023-05-08T08:29:50;100959.19;;;9.43;83.62
52651;BME280;38537;47.226;39.702;2023-05-08T08:32:31;100965.03;;;9.41;83.63
52651;BME280;38537;47.226;39.702;2023-05-08T08:34:58;100990.13;;;9.41;83.82
52651;BME280;38537;47.226;39.702;2023-05-08T08:37:25;100936.97;;;9.27;83.95
52651;BME280;38537;47.226;39.702;2023-05-08T08:39:53;100943.66;;;9.26;84.23
52651;BME280;38537;47.226;39.702;2023-05-08T08:42:21;100967.56;;;9.33;84.38
52651;BME280;38537;47.226;39.702;2023-05-08T08:44:49;100980.16;;;9.25;84.18
52651;BME280;38537;47.226;39.702;2023-05-08T08:47:18;100971.81;;;9.25;84.22
52651;BME280;38537;47.226;39.702;2023-05-08T08:49:49;100968.22;;;9.14;83.85
52651;BME280;38537;47.226;39.702;2023-05-08T08:52:34;100961.78;;;9.19;84.22
52651;BME280;38537;47.226;39.702;2023-05-08T08:55:06;100975.44;;;9.20;83.88
52651;BME280;38537;47.226;39.702;2023-05-08T08:57:36;100961.84;;;9.09;83.81
52651;BME280;38537;47.226;39.702;2023-05-08T09:00:06;100955.72;;;9.07;83.66
52651;BME280;38537;47.226;39.702;2023-05-08T09:02:34;100955.13;;;9.15;83.63
52651;BME280;38537;47.226;39.702;2023-05-08T09:05:02;100977.97;;;9.17;84.10
52651;BME280;38537;47.226;39.702;2023-05-08T09:07:31;100969.59;;;9.22;84.54
52651;BME280;38537;47.226;39.702;2023-05-08T09:09:59;100959.03;;;9.14;84.84
52651;BME280;38537;47.226;39.702;2023-05-08T09:12:30;100993.56;;;9.18;84.49
52651;BME280;38537;47.226;39.702;2023-05-08T09:14:58;100958.47;;;9.12;84.57
52651;BME280;38537;47.226;39.702;2023-05-08T09:17:25;100940.91;;;9.16;84.56
52651;BME280;38537;47.226;39.702;2023-05-08T09:19:52;100981.00;;;9.20;84.43
52651;BME280;38537;47.226;39.702;2023-05-08T09:22:20;100950.09;;;9.17;84.34
52651;BME280;38537;47.226;39.702;2023-05-08T09:24:59;100971.53;;;9.16;85.27
52651;BME280;38537;47.226;39.702;2023-05-08T09:27:30;100950.97;;;9.07;85.32
52651;BME280;38537;47.226;39.702;2023-05-08T09:32:34;100972.69;;;9.10;85.70
52651;BME280;38537;47.226;39.702;2023-05-08T09:35:03;100980.25;;;9.05;86.24
52651;BME280;38537;47.226;39.702;2023-05-08T09:37:32;100966.88;;;9.07;85.93
52651;BME280;38537;47.226;39.702;2023-05-08T09:40:19;100962.44;;;8.96;86.39
52651;BME280;38537;47.226;39.702;2023-05-08T09:42:49;100986.66;;;8.95;86.48
52651;BME280;38537;47.226;39.702;2023-05-08T09:45:30;100983.63;;;8.86;86.61
52651;BME280;38537;47.226;39.702;2023-05-08T09:47:58;100993.66;;;8.82;86.66
52651;BME280;38537;47.226;39.702;2023-05-08T09:50:26;100966.94;;;8.81;86.78
52651;BME280;38537;47.226;39.702;2023-05-08T09:52:53;100967.50;;;8.78;86.94
52651;BME280;38537;47.226;39.702;2023-05-08T09:55:21;100966.09;;;8.76;87.18
52651;BME280;38537;47.226;39.702;2023-05-08T09:57:56;100995.06;;;8.75;87.30
52651;BME280;38537;47.226;39.702;2023-05-08T10:00:25;100980.84;;;8.71;87.13
52651;BME280;38537;47.226;39.702;2023-05-08T10:02:58;100975.84;;;8.73;87.60
52651;BME280;38537;47.226;39.702;2023-05-08T10:05:28;100967.50;;;8.73;87.50
52651;BME280;38537;47.226;39.702;2023-05-08T10:08:20;100969.72;;;8.81;87.55
52651;BME280;38537;47.226;39.702;2023-05-08T10:10:49;100981.97;;;8.80;86.70
52651;BME280;38537;47.226;39.702;2023-05-08T10:13:16;100981.41;;;8.83;87.47
52651;BME280;38537;47.226;39.702;2023-05-08T10:15:44;100988.09;;;8.87;87.42
52651;BME280;38537;47.226;39.702;2023-05-08T10:18:13;100969.72;;;8.81;87.35
52651;BME280;38537;47.226;39.702;2023-05-08T10:20:44;100985.81;;;9.00;87.24
52651;BME280;38537;47.226;39.702;2023-05-08T10:23:15;100987.22;;;8.97;86.56
52651;BME280;38537;47.226;39.702;2023-05-08T10:25:47;100993.63;;;9.03;86.91
52651;BME280;38537;47.226;39.702;2023-05-08T10:28:43;100960.47;;;8.96;87.19
52651;BME280;38537;47.226;39.702;2023-05-08T10:31:17;100990.22;;;9.11;86.41
52651;BME280;38537;47.226;39.702;2023-05-08T10:33:44;100989.16;;;9.07;86.38
52651;BME280;38537;47.226;39.702;2023-05-08T10:36:13;100983.59;;;8.97;86.33
52651;BME280;38537;47.226;39.702;2023-05-08T10:38:40;100974.94;;;9.03;86.17
52651;BME280;38537;47.226;39.702;2023-05-08T10:41:10;100980.53;;;9.03;86.18
52651;BME280;38537;47.226;39.702;2023-05-08T10:43:40;100979.41;;;9.04;85.80
52651;BME280;38537;47.226;39.702;2023-05-08T10:50:00;100989.38;;;9.10;85.20
52651;BME280;38537;47.226;39.702;2023-05-08T10:52:36;101010.81;;;9.20;85.11
52651;BME280;38537;47.226;39.702;2023-05-08T10:55:08;100986.59;;;9.15;84.76
52651;BME280;38537;47.226;39.702;2023-05-08T10:58:10;100991.31;;;9.20;84.71
52651;BME280;38537;47.226;39.702;2023-05-08T11:03:28;100998.63;;;9.06;83.61
52651;BME280;38537;47.226;39.702;2023-05-08T11:05:59;100991.34;;;9.10;83.68
52651;BME280;38537;47.226;39.702;2023-05-08T11:08:27;101005.25;;;9.20;83.28
52651;BME280;38537;47.226;39.702;2023-05-08T11:13:36;101005.22;;;9.30;81.29
52651;BME280;38537;47.226;39.702;2023-05-08T11:16:04;100995.22;;;9.24;81.21
52651;BME280;38537;47.226;39.702;2023-05-08T11:18:32;101011.94;;;9.29;80.64
52651;BME280;38537;47.226;39.702;2023-05-08T11:21:19;101004.41;;;9.30;80.96
52651;BME280;38537;47.226;39.702;2023-05-08T11:23:57;100989.03;;;9.32;80.59
52651;BME280;38537;47.226;39.702;2023-05-08T11:26:37;100991.78;;;9.42;80.43
52651;BME280;38537;47.226;39.702;2023-05-08T11:29:15;101012.44;;;9.36;79.98
52651;BME280;38537;47.226;39.702;2023-05-08T11:31:50;100995.97;;;9.45;79.43
52651;BME280;38537;47.226;39.702;2023-05-08T11:37:17;101001.75;;;9.53;78.74
52651;BME280;38537;47.226;39.702;2023-05-08T11:39:49;100985.03;;;9.53;79.18
52651;BME280;38537;47.226;39.702;2023-05-08T11:45:14;101000.59;;;9.65;78.51
52651;BME280;38537;47.226;39.702;2023-05-08T11:47:43;101006.75;;;9.67;78.56
52651;BME280;38537;47.226;39.702;2023-05-08T11:50:12;100992.25;;;9.59;78.96
52651;BME280;38537;47.226;39.702;2023-05-08T11:52:40;101011.50;;;9.61;78.99
52651;BME280;38537;47.226;39.702;2023-05-08T11:55:09;101003.47;;;9.49;79.79
52651;BME280;38537;47.226;39.702;2023-05-08T11:57:37;100992.06;;;9.41;79.51
52651;BME280;38537;47.226;39.702;2023-05-08T12:00:10;101028.31;;;9.46;80.24
52651;BME280;38537;47.226;39.702;2023-05-08T12:02:40;101019.66;;;9.47;80.05
52651;BME280;38537;47.226;39.702;2023-05-08T12:05:09;100998.75;;;9.50;79.74
52651;BME280;38537;47.226;39.702;2023-05-08T12:07:44;100996.81;;;9.45;79.86
52651;BME280;38537;47.226;39.702;2023-05-08T12:10:13;100992.84;;;9.56;79.54
52651;BME280;38537;47.226;39.702;2023-05-08T12:12:42;101017.13;;;9.51;79.90
52651;BME280;38537;47.226;39.702;2023-05-08T12:15:12;100999.31;;;9.47;79.79
52651;BME280;38537;47.226;39.702;2023-05-08T12:17:40;100992.66;;;9.38;79.35
52651;BME280;38537;47.226;39.702;2023-05-08T12:20:10;101007.94;;;9.45;79.30
52651;BME280;38537;47.226;39.702;2023-05-08T12:22:40;101011.28;;;9.47;79.63
52651;BME280;38537;47.226;39.702;2023-05-08T12:25:09;100987.81;;;9.53;79.90
52651;BME280;38537;47.226;39.702;2023-05-08T12:27:38;100968.66;;;9.47;79.61
52651;BME280;38537;47.226;39.702;2023-05-08T12:30:10;100993.41;;;9.53;80.07
52651;BME280;38537;47.226;39.702;2023-05-08T12:32:42;100980.66;;;9.37;80.18
52651;BME280;38537;47.226;39.702;2023-05-08T12:35:10;100998.75;;;9.45;80.41
52651;BME280;38537;47.226;39.702;2023-05-08T12:37:38;100996.81;;;9.40;80.50
52651;BME280;38537;47.226;39.702;2023-05-08T12:40:07;100977.88;;;9.37;80.46
52651;BME280;38537;47.226;39.702;2023-05-08T12:42:49;101000.16;;;9.42;80.23
52651;BME280;38537;47.226;39.702;2023-05-08T12:45:21;100999.88;;;9.44;80.77
52651;BME280;38537;47.226;39.702;2023-05-08T12:47:51;101002.09;;;9.42;80.20
52651;BME280;38537;47.226;39.702;2023-05-08T12:50:20;100993.47;;;9.38;80.31
52651;BME280;38537;47.226;39.702;2023-05-08T12:52:48;100988.19;;;9.37;80.52
52651;BME280;38537;47.226;39.702;2023-05-08T12:55:27;100997.38;;;9.42;81.02
52651;BME280;38537;47.226;39.702;2023-05-08T12:58:12;100995.44;;;9.33;81.24
52651;BME280;38537;47.226;39.702;2023-05-08T13:00:46;101000.50;;;9.31;80.90
52651;BME280;38537;47.226;39.702;2023-05-08T13:03:26;101011.38;;;9.17;81.08
52651;BME280;38537;47.226;39.702;2023-05-08T13:05:55;101019.47;;;9.18;81.02
52651;BME280;38537;47.226;39.702;2023-05-08T13:11:01;101047.38;;;9.08;81.80
52651;BME280;38537;47.226;39.702;2023-05-08T13:13:30;101027.03;;;9.08;81.49
52651;BME280;38537;47.226;39.702;2023-05-08T13:16:02;101017.00;;;9.07;81.98
52651;BME280;38537;47.226;39.702;2023-05-08T13:18:30;101039.84;;;9.04;81.53
52651;BME280;38537;47.226;39.702;2023-05-08T13:20:58;101030.09;;;9.01;81.48
52651;BME280;38537;47.226;39.702;2023-05-08T13:23:27;101025.66;;;8.95;81.61
52651;BME280;38537;47.226;39.702;2023-05-08T13:25:55;101034.00;;;9.00;81.62
52651;BME280;38537;47.226;39.702;2023-05-08T13:28:22;101021.50;;;8.82;81.59
52651;BME280;38537;47.226;39.702;2023-05-08T13:30:49;101031.22;;;8.90;81.79
52651;BME280;38537;47.226;39.702;2023-05-08T13:33:17;101006.47;;;8.73;81.33
52651;BME280;38537;47.226;39.702;2023-05-08T13:35:44;101039.28;;;8.91;81.11
52651;BME280;38537;47.226;39.702;2023-05-08T13:38:12;101036.81;;;8.85;81.47
52651;BME280;38537;47.226;39.702;2023-05-08T13:40:41;101042.09;;;8.76;80.87
52651;BME280;38537;47.226;39.702;2023-05-08T13:43:08;101044.34;;;8.74;81.01
52651;BME280;38537;47.226;39.702;2023-05-08T13:45:37;101023.16;;;8.68;81.18
52651;BME280;38537;47.226;39.702;2023-05-08T13:48:04;101056.59;;;8.83;81.53
52651;BME280;38537;47.226;39.702;2023-05-08T13:50:33;101041.00;;;8.77;80.93
52651;BME280;38537;47.226;39.702;2023-05-08T13:53:00;101044.34;;;8.84;81.07